createdAt,value
2022-09-22T00:01:26.083Z,2.60
2022-09-22T00:04:00.329Z,3.47
2022-09-22T00:06:30.461Z,2.60
2022-09-22T00:09:01.867Z,6.73
2022-09-22T00:11:31.571Z,3.67
2022-09-22T00:14:01.527Z,6.43
2022-09-22T00:16:37.880Z,3.40
2022-09-22T00:19:35.966Z,3.30
2022-09-22T00:22:04.270Z,9.90
2022-09-22T00:24:31.688Z,7.93
2022-09-22T00:26:59.561Z,5.37
2022-09-22T00:29:28.291Z,5.47
2022-09-22T00:31:55.347Z,5.63
2022-09-22T00:34:25.160Z,9.70
2022-09-22T00:36:52.189Z,9.03
2022-09-22T00:39:19.354Z,7.90
2022-09-22T00:41:49.691Z,8.97
2022-09-22T00:44:29.237Z,6.07
2022-09-22T00:47:14.506Z,10.30
2022-09-22T00:49:53.863Z,8.43
2022-09-22T00:52:25.544Z,9.33
2022-09-22T00:54:56.997Z,7.50
2022-09-22T00:57:28.152Z,5.10
2022-09-22T00:59:55.575Z,4.23
2022-09-22T01:02:22.339Z,4.67
2022-09-22T01:04:52.031Z,4.90
2022-09-22T01:07:24.255Z,8.23
2022-09-22T01:09:52.326Z,7.33
2022-09-22T01:12:19.856Z,7.30
2022-09-22T01:14:52.482Z,4.13
2022-09-22T01:17:38.862Z,7.07
2022-09-22T01:20:53.835Z,5.87
2022-09-22T01:23:25.220Z,7.40
2022-09-22T01:26:16.861Z,7.77
2022-09-22T01:28:49.493Z,8.77
2022-09-22T01:31:22.011Z,9.20
2022-09-22T01:34:03.652Z,7.60
2022-09-22T01:36:49.708Z,5.23
2022-09-22T01:39:22.803Z,7.87
2022-09-22T01:42:28.144Z,3.97
2022-09-22T01:44:58.448Z,4.90
2022-09-22T01:47:40.594Z,4.83
2022-09-22T01:50:36.139Z,7.20
2022-09-22T01:53:11.337Z,4.47
2022-09-22T01:55:41.576Z,4.93
2022-09-22T01:58:21.044Z,4.67
2022-09-22T02:00:55.947Z,3.53
2022-09-22T02:03:38.823Z,4.97
2022-09-22T02:06:18.684Z,4.40
2022-09-22T02:08:48.513Z,4.63
2022-09-22T02:11:18.580Z,5.90
2022-09-22T02:13:46.721Z,4.30
2022-09-22T02:16:18.774Z,3.47
2022-09-22T02:19:13.529Z,5.93
2022-09-22T02:21:43.816Z,5.97
2022-09-22T02:24:37.969Z,5.00
2022-09-22T02:27:36.400Z,4.57
2022-09-22T02:30:11.880Z,5.70
2022-09-22T02:32:43.153Z,6.70
2022-09-22T02:35:10.332Z,4.73
2022-09-22T02:38:03.594Z,4.73
2022-09-22T02:40:30.603Z,5.77
2022-09-22T02:43:14.433Z,5.90
2022-09-22T02:45:57.304Z,5.53
2022-09-22T02:48:40.417Z,4.37
2022-09-22T02:51:07.597Z,8.13
2022-09-22T02:53:36.682Z,4.30
2022-09-22T02:56:04.607Z,4.20
2022-09-22T02:58:31.415Z,5.23
2022-09-22T03:00:58.296Z,5.87
2022-09-22T03:03:25.023Z,6.67
2022-09-22T03:05:52.277Z,5.30
2022-09-22T03:08:19.105Z,6.03
2022-09-22T03:10:45.898Z,7.90
2022-09-22T03:13:17.100Z,4.80
2022-09-22T03:15:45.929Z,6.97
2022-09-22T03:18:13.376Z,7.53
2022-09-22T03:20:40.162Z,10.47
2022-09-22T03:23:07.337Z,8.37
2022-09-22T03:25:34.364Z,4.73
2022-09-22T03:28:01.280Z,6.63
2022-09-22T03:30:28.085Z,5.77
2022-09-22T03:32:54.931Z,5.13
2022-09-22T03:35:21.685Z,5.00
2022-09-22T03:37:48.512Z,5.73
2022-09-22T03:40:15.420Z,8.57
2022-09-22T03:42:42.420Z,5.73
2022-09-22T03:45:09.713Z,6.70
2022-09-22T03:47:36.439Z,7.30
2022-09-22T03:50:03.428Z,8.80
2022-09-22T03:52:30.225Z,4.47
2022-09-22T03:54:56.971Z,4.63
2022-09-22T03:57:23.737Z,5.63
2022-09-22T03:59:50.534Z,4.53
2022-09-22T04:02:17.674Z,6.07
2022-09-22T04:04:44.515Z,6.03
2022-09-22T04:07:11.421Z,4.33
2022-09-22T04:09:38.157Z,8.03
2022-09-22T04:12:05.189Z,5.17
2022-09-22T04:14:31.946Z,5.73
2022-09-22T04:16:58.742Z,4.13
2022-09-22T04:19:25.554Z,6.03
2022-09-22T04:21:56.991Z,6.13
2022-09-22T04:24:24.655Z,6.13
2022-09-22T04:27:18.100Z,6.13
2022-09-22T04:29:38.751Z,4.83
2022-09-22T04:32:05.837Z,4.27
2022-09-22T04:34:32.616Z,6.13
2022-09-22T04:36:59.366Z,4.77
2022-09-22T04:39:28.572Z,3.03
2022-09-22T04:41:56.086Z,2.53
2022-09-22T04:44:23.661Z,4.17
2022-09-22T04:46:50.463Z,2.27
2022-09-22T04:49:18.302Z,6.40
2022-09-22T04:51:45.363Z,3.90
2022-09-22T04:54:13.524Z,4.37
2022-09-22T04:56:43.609Z,5.00
2022-09-22T04:59:10.465Z,3.57
2022-09-22T05:01:37.495Z,4.60
2022-09-22T05:04:04.471Z,3.73
2022-09-22T05:06:31.273Z,2.47
2022-09-22T05:08:58.637Z,3.23
2022-09-22T05:11:25.759Z,2.57
2022-09-22T05:13:52.614Z,3.80
2022-09-22T05:16:20.101Z,2.20
2022-09-22T05:18:50.207Z,4.13
2022-09-22T05:21:18.837Z,4.40
2022-09-22T05:23:46.325Z,1.73
2022-09-22T05:26:13.418Z,2.27
2022-09-22T05:28:40.925Z,2.40
2022-09-22T05:31:07.859Z,1.70
2022-09-22T05:33:34.754Z,2.13
2022-09-22T05:36:01.700Z,2.67
2022-09-22T05:38:28.983Z,6.27
2022-09-22T05:40:55.747Z,5.67
2022-09-22T05:43:22.503Z,5.87
2022-09-22T05:45:49.843Z,5.67
2022-09-22T05:48:16.701Z,4.30
2022-09-22T05:50:45.090Z,4.63
2022-09-22T05:53:12.383Z,4.87
2022-09-22T05:55:40.468Z,6.10
2022-09-22T05:58:09.317Z,11.00
2022-09-22T06:00:36.672Z,5.37
2022-09-22T06:03:04.024Z,6.53
2022-09-22T06:05:30.865Z,5.40
2022-09-22T06:08:03.701Z,4.63
2022-09-22T06:10:31.465Z,10.27
2022-09-22T06:13:03.047Z,7.40
2022-09-22T06:15:31.081Z,10.80
2022-09-22T06:17:57.899Z,7.93
2022-09-22T06:20:24.851Z,10.20
2022-09-22T06:22:52.076Z,6.90
2022-09-22T06:25:19.009Z,9.77
2022-09-22T06:27:46.991Z,8.07
2022-09-22T06:30:14.046Z,7.03
2022-09-22T06:32:40.889Z,8.97
2022-09-22T06:35:08.251Z,8.20
2022-09-22T06:37:38.606Z,7.53
2022-09-22T06:40:08.361Z,6.73
2022-09-22T06:42:36.101Z,8.40
2022-09-22T06:45:04.678Z,7.80
2022-09-22T06:47:32.428Z,13.40
2022-09-22T06:50:02.351Z,7.17
2022-09-22T06:52:51.964Z,7.47
2022-09-22T06:55:32.159Z,10.27
2022-09-22T06:58:00.101Z,7.97
2022-09-22T07:00:31.370Z,11.63
2022-09-22T07:03:28.071Z,9.27
2022-09-22T07:06:03.299Z,10.93
2022-09-22T07:08:33.029Z,10.47
2022-09-22T07:11:08.046Z,9.37
2022-09-22T07:13:39.026Z,9.63
2022-09-22T07:16:17.711Z,7.93
2022-09-22T07:18:51.930Z,9.53
2022-09-22T07:21:24.775Z,10.10
2022-09-22T07:23:54.631Z,8.37
2022-09-22T07:26:32.171Z,10.37
2022-09-22T07:29:02.334Z,8.23
2022-09-22T07:31:32.004Z,10.03
2022-09-22T07:34:02.044Z,9.40
2022-09-22T07:36:31.074Z,7.27
2022-09-22T07:39:03.379Z,8.00
2022-09-22T07:41:31.888Z,7.80
2022-09-22T07:44:20.855Z,7.00
2022-09-22T07:46:48.024Z,7.07
2022-09-22T07:49:15.303Z,7.63
2022-09-22T07:51:42.261Z,4.93
2022-09-22T07:54:09.175Z,7.13
2022-09-22T07:56:40.836Z,5.38
2022-09-22T07:59:12.797Z,4.75
2022-09-22T08:01:44.327Z,4.45
2022-09-22T08:04:14.000Z,3.92
2022-09-22T08:06:40.800Z,8.75
2022-09-22T08:09:08.403Z,6.00
2022-09-22T08:11:35.193Z,6.47
2022-09-22T08:14:04.800Z,4.05
2022-09-22T08:16:37.017Z,3.78
2022-09-22T08:19:12.130Z,7.50
2022-09-22T08:21:47.940Z,4.38
2022-09-22T08:24:22.061Z,3.42
2022-09-22T08:26:50.685Z,5.32
2022-09-22T08:29:17.609Z,5.40
2022-09-22T08:31:47.673Z,3.25
2022-09-22T08:34:16.788Z,4.18
2022-09-22T08:36:47.181Z,6.45
2022-09-22T08:39:15.421Z,6.00
2022-09-22T08:41:55.342Z,6.13
2022-09-22T08:44:49.262Z,6.18
2022-09-22T08:47:45.796Z,4.32
2022-09-22T08:50:45.091Z,4.78
2022-09-22T08:53:16.530Z,3.28
2022-09-22T08:55:46.931Z,5.88
2022-09-22T08:58:32.692Z,5.32
2022-09-22T09:01:17.837Z,4.95
2022-09-22T09:04:12.413Z,3.63
2022-09-22T09:06:42.151Z,5.05
2022-09-22T09:09:27.614Z,4.30
2022-09-22T09:12:28.592Z,4.20
2022-09-22T09:15:38.186Z,4.68
2022-09-22T09:18:15.297Z,4.07
2022-09-22T09:20:47.560Z,5.53
2022-09-22T09:23:18.883Z,8.23
2022-09-22T09:25:52.440Z,4.93
2022-09-22T09:28:27.715Z,3.63
2022-09-22T09:31:04.732Z,8.80
2022-09-22T09:33:46.857Z,5.90
2022-09-22T09:36:22.650Z,5.03
2022-09-22T09:38:54.857Z,2.65
2022-09-22T09:41:34.087Z,3.65
2022-09-22T09:44:02.714Z,6.53
2022-09-22T09:46:44.607Z,5.50
2022-09-22T09:49:19.813Z,4.13
2022-09-22T09:51:51.390Z,4.05
2022-09-22T09:54:19.340Z,2.95
2022-09-22T09:57:01.467Z,2.78
2022-09-22T09:59:47.388Z,3.97
2022-09-22T10:02:29.410Z,2.97
2022-09-22T10:05:07.516Z,3.58
2022-09-22T10:07:44.517Z,3.20
2022-09-22T10:10:31.819Z,2.10
2022-09-22T10:13:04.770Z,2.95
2022-09-22T10:15:36.615Z,3.88
2022-09-22T10:18:24.029Z,3.97
2022-09-22T10:21:15.393Z,2.83
2022-09-22T10:23:50.741Z,4.80
2022-09-22T10:26:30.594Z,6.47
2022-09-22T10:29:15.376Z,4.40
2022-09-22T10:31:59.759Z,3.03
2022-09-22T10:34:38.760Z,4.30
2022-09-22T10:37:11.641Z,3.72
2022-09-22T10:39:49.253Z,2.75
2022-09-22T10:42:25.757Z,4.35
2022-09-22T10:44:53.668Z,5.55
2022-09-22T10:47:32.571Z,3.33
2022-09-22T10:50:36.631Z,2.15
2022-09-22T10:53:22.678Z,3.25
2022-09-22T10:55:55.765Z,3.55
2022-09-22T10:58:49.780Z,3.42
2022-09-22T11:01:28.604Z,2.22
2022-09-22T11:04:16.591Z,2.42
2022-09-22T11:07:29.258Z,2.72
2022-09-22T11:10:41.204Z,1.50
2022-09-22T11:13:19.028Z,5.18
2022-09-22T11:16:07.276Z,2.83
2022-09-22T11:18:43.287Z,2.97
2022-09-22T11:21:23.713Z,2.50
2022-09-22T11:24:28.432Z,2.83
2022-09-22T11:26:58.648Z,1.98
2022-09-22T11:29:48.153Z,6.20
2022-09-22T11:32:54.184Z,4.22
2022-09-22T11:35:40.759Z,2.65
2022-09-22T11:38:32.159Z,3.75
2022-09-22T11:41:28.280Z,4.10
2022-09-22T11:44:21.666Z,3.20
2022-09-22T11:47:03.843Z,2.65
2022-09-22T11:49:33.531Z,2.25
2022-09-22T11:52:06.362Z,4.55
2022-09-22T11:55:03.948Z,2.38
2022-09-22T11:57:34.736Z,2.40
2022-09-22T12:00:17.463Z,2.35
2022-09-22T12:03:17.131Z,2.97
2022-09-22T12:05:54.384Z,2.90
2022-09-22T12:08:25.341Z,3.08
2022-09-22T12:10:52.815Z,4.90
2022-09-22T12:13:27.475Z,3.50
2022-09-22T12:16:18.296Z,3.03
2022-09-22T12:18:54.793Z,3.15
2022-09-22T12:21:27.498Z,5.18
2022-09-22T12:23:55.345Z,4.05
2022-09-22T12:26:31.643Z,4.30
2022-09-22T12:29:01.394Z,3.13
2022-09-22T12:31:36.866Z,4.22
2022-09-22T12:34:14.881Z,3.53
2022-09-22T12:36:42.602Z,7.22
2022-09-22T12:39:18.053Z,4.97
2022-09-22T12:42:01.754Z,5.68
2022-09-22T12:44:30.409Z,4.38
2022-09-22T12:47:01.651Z,2.47
2022-09-22T12:49:28.922Z,4.90
2022-09-22T12:51:56.251Z,2.13
2022-09-22T12:54:23.164Z,4.00
2022-09-22T12:57:20.651Z,3.22
2022-09-22T13:00:07.799Z,4.32
2022-09-22T13:02:42.969Z,2.22
2022-09-22T13:05:09.739Z,2.58
2022-09-22T13:07:37.854Z,5.43
2022-09-22T13:10:23.154Z,3.22
2022-09-22T13:13:02.640Z,2.72
2022-09-22T13:15:32.044Z,3.50
2022-09-22T13:17:59.007Z,5.88
2022-09-22T13:20:32.336Z,5.18
2022-09-22T13:23:12.709Z,4.55
2022-09-22T13:25:42.499Z,4.53
2022-09-22T13:28:09.149Z,4.60
2022-09-22T13:30:37.781Z,3.97
2022-09-22T13:33:04.706Z,5.22
2022-09-22T13:35:39.001Z,4.47
2022-09-22T13:38:07.254Z,5.28
2022-09-22T13:40:34.827Z,2.80
2022-09-22T13:43:08.721Z,6.57
2022-09-22T13:45:38.605Z,3.38
2022-09-22T13:48:13.953Z,2.90
2022-09-22T13:50:50.463Z,4.97
2022-09-22T13:53:20.539Z,7.15
2022-09-22T13:55:52.676Z,5.00
2022-09-22T13:58:43.548Z,5.72
2022-09-22T14:01:16.716Z,3.42
2022-09-22T14:03:44.013Z,3.22
2022-09-22T14:06:16.483Z,4.47
2022-09-22T14:08:44.705Z,3.33
2022-09-22T14:11:17.991Z,4.45
2022-09-22T14:13:56.714Z,4.22
2022-09-22T14:16:39.535Z,3.40
2022-09-22T14:19:16.592Z,4.80
2022-09-22T14:21:56.826Z,4.63
2022-09-22T14:24:25.004Z,3.63
2022-09-22T14:26:59.044Z,5.22
2022-09-22T14:29:33.043Z,4.57
2022-09-22T14:32:12.901Z,6.13
2022-09-22T14:34:45.495Z,4.93
2022-09-22T14:37:27.256Z,3.25
2022-09-22T14:39:56.195Z,5.25
2022-09-22T14:42:30.846Z,4.78
2022-09-22T14:45:09.797Z,7.60
2022-09-22T14:47:40.914Z,5.72
2022-09-22T14:50:11.155Z,4.55
2022-09-22T14:52:53.262Z,3.50
2022-09-22T14:55:29.258Z,3.63
2022-09-22T14:57:57.488Z,5.78
2022-09-22T15:00:42.520Z,3.88
2022-09-22T15:03:27.931Z,6.53
2022-09-22T15:06:04.648Z,4.65
2022-09-22T15:08:31.931Z,5.40
2022-09-22T15:10:59.934Z,3.95
2022-09-22T15:13:39.078Z,3.63
2022-09-22T15:16:26.859Z,6.03
2022-09-22T15:18:53.783Z,4.03
2022-09-22T15:21:29.033Z,3.38
2022-09-22T15:24:00.587Z,5.05
2022-09-22T15:26:28.939Z,4.57
2022-09-22T15:28:59.003Z,6.00
2022-09-22T15:31:29.622Z,8.00
2022-09-22T15:34:00.098Z,3.22
2022-09-22T15:36:30.618Z,6.10
2022-09-22T15:39:01.016Z,3.83
2022-09-22T15:41:28.168Z,4.57
2022-09-22T15:43:55.282Z,8.80
2022-09-22T15:46:33.975Z,8.05
2022-09-22T15:49:14.489Z,4.10
2022-09-22T15:51:41.272Z,5.15
2022-09-22T15:54:15.514Z,4.78
2022-09-22T15:56:44.127Z,6.13
2022-09-22T15:59:22.941Z,3.42
2022-09-22T16:01:51.933Z,3.72
2022-09-22T16:04:20.148Z,6.43
2022-09-22T16:06:54.321Z,4.97
2022-09-22T16:09:21.251Z,12.60
2022-09-22T16:11:48.617Z,4.38
2022-09-22T16:14:15.380Z,4.68
2022-09-22T16:16:43.067Z,3.28
2022-09-22T16:19:10.487Z,6.47
2022-09-22T16:21:40.588Z,3.53
2022-09-22T16:24:09.972Z,5.22
2022-09-22T16:26:38.680Z,8.30
2022-09-22T16:29:07.497Z,4.93
2022-09-22T16:31:35.482Z,5.72
2022-09-22T16:34:03.863Z,4.78
2022-09-22T16:36:35.418Z,7.40
2022-09-22T16:39:03.735Z,7.88
2022-09-22T16:41:44.628Z,10.88
2022-09-22T16:44:11.465Z,5.53
2022-09-22T16:46:38.859Z,6.55
2022-09-22T16:49:11.707Z,6.82
2022-09-22T16:51:41.025Z,7.60
2022-09-22T16:54:14.603Z,4.45
2022-09-22T16:56:43.968Z,5.50
2022-09-22T16:59:13.273Z,7.25
2022-09-22T17:01:40.095Z,7.00
2022-09-22T17:04:08.261Z,7.22
2022-09-22T17:06:36.112Z,4.72
2022-09-22T17:09:03.466Z,8.02
2022-09-22T17:11:34.574Z,5.32
2022-09-22T17:14:08.883Z,7.05
2022-09-22T17:16:40.726Z,5.80
2022-09-22T17:19:12.848Z,4.38
2022-09-22T17:21:40.256Z,6.13
2022-09-22T17:24:09.294Z,5.82
2022-09-22T17:26:47.971Z,7.95
2022-09-22T17:29:25.640Z,5.68
2022-09-22T17:31:57.332Z,4.70
2022-09-22T17:34:26.258Z,6.33
2022-09-22T17:36:55.402Z,6.13
2022-09-22T17:39:24.035Z,8.00
2022-09-22T17:41:51.126Z,6.03
2022-09-22T17:44:20.926Z,4.50
2022-09-22T17:47:08.228Z,6.00
2022-09-22T17:49:53.634Z,4.83
2022-09-22T17:52:29.959Z,5.43
2022-09-22T17:55:08.070Z,9.77
2022-09-22T17:57:43.271Z,7.37
2022-09-22T18:00:13.448Z,7.17
2022-09-22T18:02:40.417Z,5.10
2022-09-22T18:05:12.953Z,5.63
2022-09-22T18:07:40.620Z,6.53
2022-09-22T18:10:13.154Z,6.63
2022-09-22T18:12:41.312Z,5.70
2022-09-22T18:15:12.746Z,5.50
2022-09-22T18:17:42.060Z,4.60
2022-09-22T18:20:15.135Z,6.07
2022-09-22T18:22:47.583Z,5.87
2022-09-22T18:25:15.511Z,5.20
2022-09-22T18:27:42.444Z,5.93
2022-09-22T18:30:14.139Z,7.03
2022-09-22T18:32:42.806Z,7.93
2022-09-22T18:35:09.696Z,5.73
2022-09-22T18:37:36.487Z,6.97
2022-09-22T18:40:04.116Z,5.30
2022-09-22T18:42:32.440Z,5.83
2022-09-22T18:44:59.298Z,9.07
2022-09-22T18:47:26.291Z,7.67
2022-09-22T18:49:53.108Z,21.07
2022-09-22T18:52:23.844Z,9.00
2022-09-22T18:54:53.890Z,9.33
2022-09-22T18:57:22.888Z,19.90
2022-09-22T18:59:51.232Z,9.93
2022-09-22T19:02:23.069Z,7.17
2022-09-22T19:04:53.905Z,6.80
2022-09-22T19:07:42.617Z,8.23
2022-09-22T19:10:16.061Z,9.73
2022-09-22T19:12:43.069Z,16.97
2022-09-22T19:15:16.684Z,7.17
2022-09-22T19:17:45.522Z,6.97
2022-09-22T19:20:14.859Z,8.47
2022-09-22T19:22:42.088Z,8.37
2022-09-22T19:25:09.953Z,10.43
2022-09-22T19:27:38.536Z,8.00
2022-09-22T19:30:06.037Z,10.43
2022-09-22T19:32:33.060Z,8.70
2022-09-22T19:34:59.845Z,10.93
2022-09-22T19:37:27.905Z,25.90
2022-09-22T19:39:54.945Z,9.70
2022-09-22T19:42:21.948Z,7.43
2022-09-22T19:44:48.732Z,9.17
2022-09-22T19:47:15.999Z,12.17
2022-09-22T19:49:42.885Z,9.63
2022-09-22T19:52:10.411Z,7.63
2022-09-22T19:54:37.182Z,8.83
2022-09-22T19:57:04.342Z,9.00
2022-09-22T19:59:31.103Z,10.63
2022-09-22T20:01:57.948Z,10.80
2022-09-22T20:04:24.725Z,7.33
2022-09-22T20:06:51.678Z,8.37
2022-09-22T20:09:18.723Z,8.70
2022-09-22T20:11:48.681Z,9.10
2022-09-22T20:14:27.133Z,6.87
2022-09-22T20:17:08.145Z,11.40
2022-09-22T20:19:39.860Z,9.30
2022-09-22T20:22:28.024Z,8.60
2022-09-22T20:24:58.030Z,9.30
2022-09-22T20:27:27.261Z,7.37
2022-09-22T20:29:57.130Z,7.90
2022-09-22T20:32:26.255Z,9.43
2022-09-22T20:34:54.865Z,7.50
2022-09-22T20:37:22.883Z,7.57
2022-09-22T20:39:49.781Z,7.43
2022-09-22T20:42:17.499Z,7.13
2022-09-22T20:44:44.553Z,7.33
2022-09-22T20:47:16.727Z,6.60
2022-09-22T20:49:46.831Z,8.87
2022-09-22T20:52:17.205Z,7.50
2022-09-22T20:54:44.868Z,8.07
2022-09-22T20:57:13.181Z,9.20
2022-09-22T20:59:40.291Z,8.33
2022-09-22T21:02:07.269Z,8.00
2022-09-22T21:04:34.100Z,7.27
2022-09-22T21:07:00.833Z,16.43
2022-09-22T21:09:46.155Z,8.63
2022-09-22T21:12:13.582Z,9.17
2022-09-22T21:14:45.842Z,7.30
2022-09-22T21:17:13.739Z,7.63
2022-09-22T21:19:41.002Z,8.67
2022-09-22T21:22:08.041Z,8.57
2022-09-22T21:24:34.836Z,9.77
2022-09-22T21:27:01.564Z,7.43
2022-09-22T21:29:29.561Z,8.20
2022-09-22T21:31:57.883Z,10.63
2022-09-22T21:34:25.169Z,7.43
2022-09-22T21:36:52.315Z,6.83
2022-09-22T21:39:19.204Z,7.23
2022-09-22T21:41:45.998Z,8.47
2022-09-22T21:44:12.836Z,10.17
2022-09-22T21:46:41.765Z,8.10
2022-09-22T21:49:09.977Z,7.97
2022-09-22T21:51:41.309Z,7.53
2022-09-22T21:54:12.884Z,7.50
2022-09-22T21:56:39.657Z,9.70
2022-09-22T21:59:06.580Z,7.43
2022-09-22T22:01:36.082Z,7.47
2022-09-22T22:04:07.749Z,10.20
2022-09-22T22:06:40.071Z,7.87
2022-09-22T22:09:21.181Z,9.13
2022-09-22T22:11:59.346Z,8.43
2022-09-22T22:14:33.462Z,11.10
2022-09-22T22:17:02.251Z,9.23
2022-09-22T22:19:29.924Z,8.10
2022-09-22T22:21:56.796Z,11.63
2022-09-22T22:24:25.220Z,9.13
2022-09-22T22:26:57.109Z,9.33
2022-09-22T22:29:31.638Z,9.27
2022-09-22T22:31:58.779Z,9.37
2022-09-22T22:34:26.109Z,9.77
2022-09-22T22:36:54.179Z,9.47
2022-09-22T22:39:21.353Z,10.07
2022-09-22T22:41:51.380Z,13.40
2022-09-22T22:44:18.156Z,11.57
2022-09-22T22:46:46.169Z,9.57
2022-09-22T22:49:13.025Z,9.73
2022-09-22T22:51:42.850Z,8.83
2022-09-22T22:54:11.364Z,8.97
2022-09-22T22:56:42.102Z,8.17
2022-09-22T22:59:09.716Z,9.83
2022-09-22T23:01:37.431Z,11.13
2022-09-22T23:04:06.833Z,9.70
2022-09-22T23:06:44.456Z,10.40
2022-09-22T23:09:14.744Z,12.23
2022-09-22T23:11:42.843Z,10.77
2022-09-22T23:14:11.878Z,9.10
2022-09-22T23:16:40.693Z,10.40
2022-09-22T23:19:10.566Z,9.97
2022-09-22T23:21:37.607Z,9.97
2022-09-22T23:24:05.729Z,9.07
2022-09-22T23:26:32.599Z,9.93
2022-09-22T23:28:59.894Z,10.67
2022-09-22T23:31:27.768Z,9.57
2022-09-22T23:33:54.689Z,9.43
2022-09-22T23:36:24.201Z,9.23
2022-09-22T23:38:55.354Z,11.93
2022-09-22T23:41:22.135Z,9.33
2022-09-22T23:43:49.302Z,9.17
2022-09-22T23:46:16.095Z,10.23
2022-09-22T23:48:42.886Z,12.40
2022-09-22T23:51:10.241Z,12.03
2022-09-22T23:53:37.915Z,13.50
2022-09-22T23:56:06.301Z,12.27
2022-09-22T23:58:34.067Z,9.30
